createdAt,value
2022-08-20T00:01:07.052Z,100124.81
2022-08-20T00:03:39.163Z,100128.63
2022-08-20T00:06:12.808Z,100130.81
2022-08-20T00:08:40.185Z,100130.00
2022-08-20T00:11:08.877Z,100131.63
2022-08-20T00:13:43.027Z,100137.59
2022-08-20T00:16:10.524Z,100127.25
2022-08-20T00:18:37.454Z,100126.72
2022-08-20T00:21:07.993Z,100131.59
2022-08-20T00:23:46.456Z,100131.06
2022-08-20T00:26:13.599Z,100136.22
2022-08-20T00:28:40.496Z,100137.31
2022-08-20T00:31:12.350Z,100130.22
2022-08-20T00:33:39.404Z,100125.59
2022-08-20T00:36:09.297Z,100134.59
2022-08-20T00:38:40.517Z,100138.66
2022-08-20T00:41:09.257Z,100143.84
2022-08-20T00:43:43.061Z,100136.50
2022-08-20T00:46:31.644Z,100143.56
2022-08-20T00:49:00.121Z,100135.16
2022-08-20T00:51:43.199Z,100131.91
2022-08-20T00:54:41.410Z,100139.78
2022-08-20T00:57:11.916Z,100140.59
2022-08-20T00:59:40.256Z,100137.03
2022-08-20T01:02:10.434Z,100137.88
2022-08-20T01:04:40.749Z,100140.03
2022-08-20T01:07:07.820Z,100143.28
2022-08-20T01:09:58.527Z,100147.34
2022-08-20T01:12:24.018Z,100151.16
2022-08-20T01:14:51.176Z,100151.44
2022-08-20T01:17:22.123Z,100156.03
2022-08-20T01:19:53.400Z,100158.50
2022-08-20T01:23:06.233Z,100162.56
2022-08-20T01:25:53.501Z,100163.38
2022-08-20T01:28:24.188Z,100170.69
2022-08-20T01:30:51.350Z,100175.59
2022-08-20T01:33:22.792Z,100173.16
2022-08-20T01:35:50.682Z,100172.31
2022-08-20T01:38:17.567Z,100175.88
2022-08-20T01:40:53.534Z,100178.31
2022-08-20T01:43:21.395Z,100176.44
2022-08-20T01:45:49.900Z,100170.16
2022-08-20T01:48:26.569Z,100173.97
2022-08-20T01:51:17.566Z,100172.63
2022-08-20T01:53:56.645Z,100175.03
2022-08-20T01:56:26.203Z,100189.13
2022-08-20T01:58:57.260Z,100179.66
2022-08-20T02:01:45.835Z,100179.88
2022-08-20T02:04:15.344Z,100175.03
2022-08-20T02:06:56.692Z,100167.38
2022-08-20T02:09:25.950Z,100172.03
2022-08-20T02:11:53.561Z,100170.66
2022-08-20T02:14:26.857Z,100176.06
2022-08-20T02:16:59.638Z,100177.94
2022-08-20T02:19:41.930Z,100174.13
2022-08-20T02:22:40.786Z,100172.47
2022-08-20T02:25:17.128Z,100173.84
2022-08-20T02:27:46.073Z,100176.00
2022-08-20T02:30:21.239Z,100181.44
2022-08-20T02:32:56.239Z,100181.97
2022-08-20T02:35:24.233Z,100186.56
2022-08-20T02:37:51.650Z,100188.22
2022-08-20T02:40:27.282Z,100193.66
2022-08-20T02:43:01.606Z,100192.84
2022-08-20T02:45:29.906Z,100190.94
2022-08-20T02:47:56.909Z,100194.19
2022-08-20T02:50:24.970Z,100192.00
2022-08-20T02:52:52.379Z,100198.81
2022-08-20T02:55:27.630Z,100180.56
2022-08-20T02:58:09.983Z,100184.31
2022-08-20T03:00:37.968Z,100183.16
2022-08-20T03:03:09.346Z,100187.72
2022-08-20T03:05:39.403Z,100184.47
2022-08-20T03:08:08.319Z,100186.38
2022-08-20T03:10:36.716Z,100187.47
2022-08-20T03:13:11.234Z,100181.19
2022-08-20T03:15:40.096Z,100181.47
2022-08-20T03:18:07.313Z,100193.94
2022-08-20T03:20:36.281Z,100197.19
2022-08-20T03:23:03.779Z,100201.28
2022-08-20T03:25:30.801Z,100205.38
2022-08-20T03:27:57.888Z,100200.75
2022-08-20T03:30:26.717Z,100205.38
2022-08-20T03:32:56.235Z,100196.16
2022-08-20T03:35:25.020Z,100205.38
2022-08-20T03:37:52.016Z,100207.00
2022-08-20T03:40:22.557Z,100208.66
2022-08-20T03:42:49.541Z,100209.44
2022-08-20T03:45:20.310Z,100209.72
2022-08-20T03:47:48.391Z,100217.91
2022-08-20T03:50:23.197Z,100218.16
2022-08-20T03:52:52.095Z,100220.88
2022-08-20T03:55:19.637Z,100220.31
2022-08-20T03:57:49.704Z,100223.03
2022-08-20T04:00:27.006Z,100226.03
2022-08-20T04:02:53.990Z,100229.00
2022-08-20T04:05:21.086Z,100227.34
2022-08-20T04:07:48.008Z,100229.25
2022-08-20T04:10:14.769Z,100228.41
2022-08-20T04:12:52.921Z,100225.97
2022-08-20T04:15:21.205Z,100223.53
2022-08-20T04:17:50.190Z,100234.44
2022-08-20T04:20:22.747Z,100234.16
2022-08-20T04:22:59.090Z,100227.91
2022-08-20T04:25:36.191Z,100232.22
2022-08-20T04:28:06.716Z,100235.44
2022-08-20T04:30:33.551Z,100237.09
2022-08-20T04:33:04.034Z,100234.69
2022-08-20T04:35:31.295Z,100239.56
2022-08-20T04:38:00.856Z,100240.06
2022-08-20T04:40:45.993Z,100244.16
2022-08-20T04:43:14.662Z,100247.94
2022-08-20T04:45:43.919Z,100248.22
2022-08-20T04:48:14.966Z,100251.44
2022-08-20T04:50:51.845Z,100250.38
2022-08-20T04:53:25.287Z,100256.88
2022-08-20T04:55:54.416Z,100250.09
2022-08-20T04:58:33.833Z,100254.72
2022-08-20T05:01:06.308Z,100253.88
2022-08-20T05:03:35.526Z,100255.25
2022-08-20T05:06:02.228Z,100257.38
2022-08-20T05:08:29.710Z,100254.72
2022-08-20T05:11:34.023Z,100257.13
2022-08-20T05:13:52.853Z,100261.16
2022-08-20T05:16:20.580Z,100264.94
2022-08-20T05:18:52.133Z,100254.66
2022-08-20T05:21:20.868Z,100248.19
2022-08-20T05:23:49.032Z,100258.44
2022-08-20T05:26:16.796Z,100247.03
2022-08-20T05:28:58.125Z,100255.97
2022-08-20T05:31:32.000Z,100255.94
2022-08-20T05:34:10.378Z,100264.31
2022-08-20T05:36:52.564Z,100268.38
2022-08-20T05:39:22.971Z,100261.53
2022-08-20T05:41:52.121Z,100263.50
2022-08-20T05:44:20.645Z,100271.66
2022-08-20T05:46:48.041Z,100271.88
2022-08-20T05:49:20.085Z,100264.00
2022-08-20T05:51:47.422Z,100275.59
2022-08-20T05:54:15.512Z,100273.72
2022-08-20T05:56:42.199Z,100274.28
2022-08-20T05:59:09.875Z,100278.44
2022-08-20T06:01:38.528Z,100287.13
2022-08-20T06:04:24.319Z,100283.34
2022-08-20T06:06:53.119Z,100274.91
2022-08-20T06:09:30.936Z,100272.28
2022-08-20T06:11:59.621Z,100280.47
2022-08-20T06:14:26.696Z,100273.47
2022-08-20T06:17:00.709Z,100278.91
2022-08-20T06:19:32.368Z,100281.41
2022-08-20T06:21:59.774Z,100275.72
2022-08-20T06:24:27.030Z,100270.28
2022-08-20T06:26:58.662Z,100263.75
2022-08-20T06:29:26.096Z,100271.13
2022-08-20T06:31:56.059Z,100263.56
2022-08-20T06:34:28.357Z,100270.94
2022-08-20T06:36:58.850Z,100264.72
2022-08-20T06:39:31.394Z,100274.47
2022-08-20T06:41:58.746Z,100264.00
2022-08-20T06:44:25.976Z,100278.38
2022-08-20T06:46:59.158Z,100265.38
2022-08-20T06:49:25.871Z,100272.94
2022-08-20T06:51:54.385Z,100271.38
2022-08-20T06:54:23.496Z,100271.69
2022-08-20T06:56:56.190Z,100272.13
2022-08-20T06:59:22.900Z,100272.41
2022-08-20T07:02:09.305Z,100273.00
2022-08-20T07:04:37.135Z,100271.38
2022-08-20T07:07:04.620Z,100271.84
2022-08-20T07:09:31.403Z,100277.00
2022-08-20T07:11:58.092Z,100269.91
2022-08-20T07:14:27.320Z,100274.91
2022-08-20T07:16:56.385Z,100278.09
2022-08-20T07:19:23.370Z,100279.69
2022-08-20T07:21:52.570Z,100284.56
2022-08-20T07:24:21.915Z,100290.81
2022-08-20T07:26:58.068Z,100292.47
2022-08-20T07:29:44.774Z,100285.56
2022-08-20T07:32:30.073Z,100284.81
2022-08-20T07:34:56.703Z,100293.34
2022-08-20T07:37:23.930Z,100292.59
2022-08-20T07:39:50.919Z,100285.09
2022-08-20T07:42:20.002Z,100282.16
2022-08-20T07:44:46.668Z,100296.34
2022-08-20T07:47:13.532Z,100298.56
2022-08-20T07:49:40.643Z,100296.13
2022-08-20T07:52:07.361Z,100296.38
2022-08-20T07:54:40.048Z,100298.69
2022-08-20T07:57:06.772Z,100289.47
2022-08-20T07:59:33.448Z,100296.03
2022-08-20T08:02:00.119Z,100305.84
2022-08-20T08:04:26.784Z,100299.34
2022-08-20T08:07:00.889Z,100297.97
2022-08-20T08:09:27.720Z,100296.09
2022-08-20T08:11:57.533Z,100301.00
2022-08-20T08:14:33.488Z,100305.09
2022-08-20T08:17:04.421Z,100303.50
2022-08-20T08:19:38.730Z,100310.75
2022-08-20T08:22:08.023Z,100307.41
2022-08-20T08:24:34.652Z,100316.09
2022-08-20T08:27:08.582Z,100327.69
2022-08-20T08:29:36.157Z,100326.28
2022-08-20T08:32:07.034Z,100322.25
2022-08-20T08:34:35.404Z,100330.34
2022-08-20T08:37:03.405Z,100336.88
2022-08-20T08:39:34.628Z,100331.69
2022-08-20T08:42:05.082Z,100337.69
2022-08-20T08:44:38.562Z,100330.06
2022-08-20T08:47:18.431Z,100336.94
2022-08-20T08:49:46.948Z,100339.47
2022-08-20T08:52:22.995Z,100341.69
2022-08-20T08:54:54.187Z,100339.59
2022-08-20T08:57:20.962Z,100342.34
2022-08-20T09:00:04.984Z,100344.38
2022-08-20T09:02:34.018Z,100350.72
2022-08-20T09:05:02.401Z,100349.63
2022-08-20T09:07:32.474Z,100350.31
2022-08-20T09:10:00.203Z,100345.75
2022-08-20T09:12:37.359Z,100358.38
2022-08-20T09:15:04.394Z,100350.47
2022-08-20T09:17:31.093Z,100341.78
2022-08-20T09:19:59.174Z,100345.81
2022-08-20T09:22:28.350Z,100348.03
2022-08-20T09:24:56.242Z,100337.53
2022-08-20T09:27:22.934Z,100335.50
2022-08-20T09:29:50.681Z,100327.28
2022-08-20T09:32:23.229Z,100323.97
2022-08-20T09:37:56.089Z,100331.00
2022-08-20T09:40:22.947Z,100336.44
2022-08-20T09:42:50.848Z,100324.47
2022-08-20T09:45:21.108Z,100331.91
2022-08-20T09:47:56.510Z,100332.75
2022-08-20T09:50:28.615Z,100327.44
2022-08-20T09:52:57.014Z,100330.69
2022-08-20T09:55:32.043Z,100337.06
2022-08-20T09:58:03.354Z,100323.97
2022-08-20T10:00:29.988Z,100323.94
2022-08-20T10:02:56.746Z,100322.28
2022-08-20T10:05:23.431Z,100324.53
2022-08-20T10:07:51.149Z,100329.31
2022-08-20T10:10:17.801Z,100333.59
2022-08-20T10:12:54.921Z,100335.03
2022-08-20T10:15:25.252Z,100346.22
2022-08-20T10:17:51.931Z,100344.56
2022-08-20T10:20:19.128Z,100347.03
2022-08-20T10:22:45.929Z,100343.97
2022-08-20T10:25:16.772Z,100344.25
2022-08-20T10:27:44.261Z,100347.19
2022-08-20T10:30:14.609Z,100342.97
2022-08-20T10:32:48.586Z,100329.34
2022-08-20T10:35:15.630Z,100322.72
2022-08-20T10:37:45.612Z,100321.78
2022-08-20T10:40:15.987Z,100327.34
2022-08-20T10:42:45.941Z,100328.38
2022-08-20T10:45:17.363Z,100323.59
2022-08-20T10:47:47.029Z,100333.28
2022-08-20T10:50:19.927Z,100331.09
2022-08-20T10:52:47.361Z,100340.16
2022-08-20T10:55:14.246Z,100327.75
2022-08-20T10:57:44.828Z,100317.22
2022-08-20T11:00:17.591Z,100323.28
2022-08-20T11:02:44.321Z,100321.41
2022-08-20T11:05:11.013Z,100326.97
2022-08-20T11:07:50.635Z,100331.78
2022-08-20T11:10:27.196Z,100322.81
2022-08-20T11:12:53.880Z,100314.59
2022-08-20T11:15:20.578Z,100311.44
2022-08-20T11:17:47.336Z,100316.00
2022-08-20T11:20:24.162Z,100313.69
2022-08-20T11:22:50.988Z,100317.56
2022-08-20T11:25:17.741Z,100314.50
2022-08-20T11:27:53.578Z,100315.00
2022-08-20T11:30:32.508Z,100329.56
2022-08-20T11:33:00.521Z,100338.28
2022-08-20T11:35:49.473Z,100331.16
2022-08-20T11:38:16.220Z,100324.31
2022-08-20T11:40:43.887Z,100328.72
2022-08-20T11:43:15.606Z,100316.31
2022-08-20T11:45:45.195Z,100315.66
2022-08-20T11:48:11.960Z,100320.56
2022-08-20T11:50:38.861Z,100321.63
2022-08-20T11:53:08.232Z,100332.91
2022-08-20T11:55:35.238Z,100326.47
2022-08-20T11:58:04.686Z,100330.91
2022-08-20T12:00:39.002Z,100332.69
2022-08-20T12:03:10.257Z,100336.47
2022-08-20T12:05:40.200Z,100326.41
2022-08-20T12:08:26.903Z,100333.06
2022-08-20T12:11:06.758Z,100326.44
2022-08-20T12:13:48.157Z,100335.81
2022-08-20T12:16:19.562Z,100331.66
2022-08-20T12:18:47.422Z,100332.31
2022-08-20T12:21:14.547Z,100333.63
2022-08-20T12:23:41.314Z,100331.94
2022-08-20T12:26:08.058Z,100323.31
2022-08-20T12:28:38.779Z,100323.78
2022-08-20T12:31:11.608Z,100328.78
2022-08-20T12:33:38.735Z,100333.88
2022-08-20T12:36:14.302Z,100330.97
2022-08-20T12:38:41.202Z,100328.59
2022-08-20T12:41:07.923Z,100332.56
2022-08-20T12:43:54.261Z,100330.94
2022-08-20T12:46:29.938Z,100330.72
2022-08-20T12:48:56.823Z,100329.19
2022-08-20T12:51:26.713Z,100321.22
2022-08-20T12:54:02.093Z,100312.75
2022-08-20T12:56:31.227Z,100311.38
2022-08-20T12:58:58.371Z,100310.94
2022-08-20T13:01:35.968Z,100311.88
2022-08-20T13:04:14.683Z,100317.22
2022-08-20T13:06:47.185Z,100314.84
2022-08-20T13:09:17.127Z,100312.56
2022-08-20T13:11:46.972Z,100311.00
2022-08-20T13:14:13.999Z,100305.56
2022-08-20T13:16:42.369Z,100310.63
2022-08-20T13:19:18.386Z,100306.94
2022-08-20T13:25:46.501Z,100302.94
2022-08-20T13:28:13.489Z,100299.38
2022-08-20T13:30:41.669Z,100294.28
2022-08-20T13:33:11.991Z,100298.47
2022-08-20T13:35:41.992Z,100295.09
2022-08-20T13:38:08.957Z,100290.47
2022-08-20T13:40:35.776Z,100289.41
2022-08-20T13:43:06.845Z,100288.63
2022-08-20T13:45:37.893Z,100290.34
2022-08-20T13:48:06.942Z,100298.16
2022-08-20T13:50:40.270Z,100290.75
2022-08-20T13:53:07.911Z,100289.03
2022-08-20T13:55:34.747Z,100282.94
2022-08-20T13:58:07.574Z,100297.75
2022-08-20T14:00:34.955Z,100287.25
2022-08-20T14:03:03.735Z,100290.47
2022-08-20T14:05:30.941Z,100288.78
2022-08-20T14:08:06.252Z,100285.03
2022-08-20T14:10:33.230Z,100284.97
2022-08-20T14:13:00.251Z,100272.16
2022-08-20T14:15:26.978Z,100284.53
2022-08-20T14:17:59.242Z,100283.41
2022-08-20T14:20:32.161Z,100278.44
2022-08-20T14:22:59.715Z,100276.81
2022-08-20T14:25:31.566Z,100290.00
2022-08-20T14:27:58.944Z,100290.22
2022-08-20T14:30:29.822Z,100279.91
2022-08-20T14:33:03.607Z,100279.03
2022-08-20T14:35:37.411Z,100276.34
2022-08-20T14:38:06.702Z,100285.56
2022-08-20T14:40:34.213Z,100302.22
2022-08-20T14:43:01.236Z,100289.00
2022-08-20T14:45:28.163Z,100290.22
2022-08-20T14:47:57.421Z,100290.81
2022-08-20T14:50:27.278Z,100293.59
2022-08-20T14:52:54.902Z,100293.66
2022-08-20T14:55:23.512Z,100285.44
2022-08-20T14:57:50.820Z,100300.41
2022-08-20T15:00:29.397Z,100305.28
2022-08-20T15:02:57.021Z,100304.53
2022-08-20T15:05:24.039Z,100289.69
2022-08-20T15:08:00.673Z,100296.91
2022-08-20T15:10:40.309Z,100301.34
2022-08-20T15:13:08.125Z,100309.50
2022-08-20T15:15:35.654Z,100305.69
2022-08-20T15:18:12.309Z,100308.25
2022-08-20T15:20:38.990Z,100305.06
2022-08-20T15:23:06.418Z,100297.06
2022-08-20T15:25:42.028Z,100306.56
2022-08-20T15:28:10.065Z,100304.63
2022-08-20T15:30:38.549Z,100316.69
2022-08-20T15:33:11.246Z,100322.38
2022-08-20T15:35:38.198Z,100315.31
2022-08-20T15:38:05.035Z,100322.13
2022-08-20T15:40:32.922Z,100323.75
2022-08-20T15:43:01.323Z,100323.72
2022-08-20T15:45:28.489Z,100318.72
2022-08-20T15:48:17.446Z,100316.44
2022-08-20T15:51:05.462Z,100324.88
2022-08-20T15:53:40.396Z,100328.28
2022-08-20T15:56:29.253Z,100323.81
2022-08-20T15:59:26.201Z,100329.38
2022-08-20T16:02:38.395Z,100325.03
2022-08-20T16:05:28.151Z,100334.22
2022-08-20T16:08:08.798Z,100325.75
2022-08-20T16:11:17.216Z,100326.31
2022-08-20T16:13:44.074Z,100328.50
2022-08-20T16:16:31.460Z,100325.28
2022-08-20T16:19:02.400Z,100334.31
2022-08-20T16:24:30.990Z,100335.94
2022-08-20T16:27:13.308Z,100333.16
2022-08-20T16:30:01.958Z,100332.59
2022-08-20T16:32:47.545Z,100332.88
2022-08-20T16:35:53.741Z,100333.75
2022-08-20T16:38:33.600Z,100340.88
2022-08-20T16:41:18.076Z,100342.81
2022-08-20T16:44:22.109Z,100336.59
2022-08-20T16:47:14.399Z,100350.25
2022-08-20T16:49:57.419Z,100351.97
2022-08-20T16:52:30.809Z,100344.50
2022-08-20T16:54:57.921Z,100352.19
2022-08-20T16:57:30.654Z,100355.63
2022-08-20T17:00:16.900Z,100351.75
2022-08-20T17:03:33.562Z,100349.53
2022-08-20T17:06:31.804Z,100359.84
2022-08-20T17:08:58.926Z,100359.72
2022-08-20T17:11:39.347Z,100366.25
2022-08-20T17:14:10.900Z,100363.50
2022-08-20T17:17:07.291Z,100360.56
2022-08-20T17:19:34.381Z,100365.16
2022-08-20T17:22:12.780Z,100363.25
2022-08-20T17:24:40.365Z,100357.44
2022-08-20T17:30:34.876Z,100370.06
2022-08-20T17:33:07.439Z,100363.72
2022-08-20T17:35:43.522Z,100360.50
2022-08-20T17:39:00.474Z,100370.69
2022-08-20T17:41:43.119Z,100365.50
2022-08-20T17:44:48.888Z,100361.44
2022-08-20T17:47:25.348Z,100365.66
2022-08-20T17:50:03.005Z,100367.84
2022-08-20T17:52:53.919Z,100362.44
2022-08-20T17:55:21.357Z,100361.41
2022-08-20T17:58:04.278Z,100368.81
2022-08-20T18:00:31.249Z,100377.63
2022-08-20T18:03:23.294Z,100376.31
2022-08-20T18:06:22.075Z,100384.25
2022-08-20T18:09:17.958Z,100384.00
2022-08-20T18:11:49.762Z,100391.63
2022-08-20T18:14:46.266Z,100390.25
2022-08-20T18:17:37.914Z,100397.53
2022-08-20T18:20:44.102Z,100398.28
2022-08-20T18:23:23.680Z,100399.84
2022-08-20T18:26:14.226Z,100400.03
2022-08-20T18:28:49.178Z,100407.00
2022-08-20T18:31:40.396Z,100409.06
2022-08-20T18:34:31.228Z,100415.66
2022-08-20T18:37:04.477Z,100407.91
2022-08-20T18:39:34.194Z,100410.47
2022-08-20T18:42:10.817Z,100412.22
2022-08-20T18:44:44.112Z,100412.66
2022-08-20T18:47:26.993Z,100408.44
2022-08-20T18:50:16.607Z,100414.75
2022-08-20T18:53:09.884Z,100412.66
2022-08-20T18:55:44.846Z,100413.84
2022-08-20T18:58:34.067Z,100412.63
2022-08-20T19:01:02.353Z,100420.63
2022-08-20T19:03:40.608Z,100427.63
2022-08-20T19:06:33.654Z,100433.72
2022-08-20T19:09:10.324Z,100431.19
2022-08-20T19:11:50.299Z,100433.00
2022-08-20T19:14:57.653Z,100432.94
2022-08-20T19:17:44.158Z,100436.41
2022-08-20T19:20:17.241Z,100439.34
2022-08-20T19:22:49.674Z,100436.78
2022-08-20T19:25:35.110Z,100441.59
2022-08-20T19:28:17.829Z,100448.50
2022-08-20T19:30:45.138Z,100442.84
2022-08-20T19:33:13.196Z,100441.44
2022-08-20T19:35:45.743Z,100435.22
2022-08-20T19:38:16.370Z,100447.34
2022-08-20T19:40:46.262Z,100446.03
2022-08-20T19:43:19.294Z,100448.34
2022-08-20T19:45:48.033Z,100456.59
2022-08-20T19:48:45.447Z,100454.56
2022-08-20T19:51:32.652Z,100457.03
2022-08-20T19:54:00.609Z,100450.09
2022-08-20T19:56:28.116Z,100450.31
2022-08-20T19:59:06.533Z,100451.78
2022-08-20T20:01:34.303Z,100450.31
2022-08-20T20:04:03.849Z,100453.75
2022-08-20T20:06:33.861Z,100444.97
2022-08-20T20:09:04.532Z,100450.28
2022-08-20T20:11:37.987Z,100444.78
2022-08-20T20:14:09.142Z,100439.59
2022-08-20T20:16:38.104Z,100441.06
2022-08-20T20:22:19.358Z,100437.13
2022-08-20T20:24:50.850Z,100432.69
2022-08-20T20:27:27.759Z,100432.31
2022-08-20T20:30:28.139Z,100431.16
2022-08-20T20:32:55.177Z,100437.56
2022-08-20T20:35:33.386Z,100442.06
2022-08-20T20:38:10.917Z,100439.25
2022-08-20T20:40:50.687Z,100434.91
2022-08-20T20:43:37.866Z,100432.09
2022-08-20T20:46:25.239Z,100438.22
2022-08-20T20:48:57.256Z,100437.06
2022-08-20T20:51:35.136Z,100438.34
2022-08-20T20:54:07.726Z,100437.31
2022-08-20T20:56:38.727Z,100433.28
2022-08-20T20:59:10.496Z,100429.22
2022-08-20T21:01:50.256Z,100435.06
2022-08-20T21:04:26.443Z,100434.69
2022-08-20T21:07:07.343Z,100433.19
2022-08-20T21:09:35.570Z,100423.88
2022-08-20T21:12:08.923Z,100428.47
2022-08-20T21:14:36.241Z,100431.91
2022-08-20T21:17:05.366Z,100434.03
2022-08-20T21:19:45.293Z,100438.00
2022-08-20T21:22:12.224Z,100448.25
2022-08-20T21:24:38.878Z,100450.34
2022-08-20T21:27:13.195Z,100456.13
2022-08-20T21:29:40.050Z,100458.97
2022-08-20T21:32:07.049Z,100454.63
2022-08-20T21:34:39.656Z,100456.38
2022-08-20T21:37:06.439Z,100456.38
2022-08-20T21:39:33.266Z,100453.09
2022-08-20T21:42:02.357Z,100451.09
2022-08-20T21:44:31.716Z,100446.16
2022-08-20T21:46:59.669Z,100451.56
2022-08-20T21:49:27.321Z,100447.91
2022-08-20T21:51:59.512Z,100453.56
2022-08-20T21:54:28.882Z,100456.03
2022-08-20T21:57:05.551Z,100459.44
2022-08-20T21:59:32.576Z,100458.50
2022-08-20T22:02:01.112Z,100457.66
2022-08-20T22:04:35.239Z,100453.78
2022-08-20T22:07:02.701Z,100456.84
2022-08-20T22:09:40.301Z,100458.38
2022-08-20T22:12:22.241Z,100446.78
2022-08-20T22:14:49.337Z,100448.78
2022-08-20T22:17:16.295Z,100453.56
2022-08-20T22:19:48.748Z,100443.81
2022-08-20T22:22:15.824Z,100445.25
2022-08-20T22:24:42.565Z,100452.19
2022-08-20T22:27:09.330Z,100448.53
2022-08-20T22:29:36.027Z,100441.81
2022-08-20T22:32:03.702Z,100447.91
2022-08-20T22:34:32.733Z,100443.69
2022-08-20T22:37:00.600Z,100444.63
2022-08-20T22:39:27.679Z,100444.88
2022-08-20T22:41:54.398Z,100446.03
2022-08-20T22:44:21.178Z,100443.47
2022-08-20T22:46:53.917Z,100443.94
2022-08-20T22:49:27.000Z,100447.44
2022-08-20T22:51:53.931Z,100442.63
2022-08-20T22:54:27.136Z,100446.03
2022-08-20T22:56:55.042Z,100444.97
2022-08-20T22:59:22.737Z,100451.19
2022-08-20T23:01:49.842Z,100454.59
2022-08-20T23:04:24.257Z,100450.72
2022-08-20T23:06:51.445Z,100449.66
2022-08-20T23:09:26.409Z,100443.06
2022-08-20T23:11:53.424Z,100449.75
2022-08-20T23:14:20.808Z,100449.59
2022-08-20T23:16:58.834Z,100449.16
2022-08-20T23:19:25.866Z,100453.41
2022-08-20T23:21:53.077Z,100447.47
2022-08-20T23:24:24.249Z,100442.53
2022-08-20T23:26:53.350Z,100436.53
2022-08-20T23:29:22.320Z,100443.94
2022-08-20T23:31:53.698Z,100442.38
2022-08-20T23:34:20.395Z,100442.56
2022-08-20T23:36:47.797Z,100433.31
2022-08-20T23:39:14.444Z,100434.41
2022-08-20T23:41:47.783Z,100427.00
2022-08-20T23:44:26.598Z,100429.50
2022-08-20T23:46:59.066Z,100414.81
2022-08-20T23:49:27.107Z,100416.00
2022-08-20T23:51:55.794Z,100412.59
2022-08-20T23:54:22.516Z,100418.78
2022-08-20T23:56:49.527Z,100411.88
2022-08-20T23:59:16.357Z,100409.63
